sensor_id;sensor_type;location;lat;lon;timestamp;P1;durP1;ratioP1;P2;durP2;ratioP2
20649;SDS011;10484;48.736;9.332;2023-11-21T00:01:39;9.20;;;4.37;;
20649;SDS011;10484;48.736;9.332;2023-11-21T00:04:05;6.13;;;3.77;;
20649;SDS011;10484;48.736;9.332;2023-11-21T00:06:32;5.00;;;3.37;;
20649;SDS011;10484;48.736;9.332;2023-11-21T00:08:58;10.80;;;4.70;;
20649;SDS011;10484;48.736;9.332;2023-11-21T00:11:23;5.73;;;3.50;;
20649;SDS011;10484;48.736;9.332;2023-11-21T00:13:50;7.50;;;3.23;;
20649;SDS011;10484;48.736;9.332;2023-11-21T00:16:16;6.67;;;4.00;;
20649;SDS011;10484;48.736;9.332;2023-11-21T00:18:41;7.80;;;3.50;;
20649;SDS011;10484;48.736;9.332;2023-11-21T00:21:07;6.20;;;3.47;;
20649;SDS011;10484;48.736;9.332;2023-11-21T00:23:34;7.23;;;4.37;;
20649;SDS011;10484;48.736;9.332;2023-11-21T00:26:00;11.37;;;5.00;;
20649;SDS011;10484;48.736;9.332;2023-11-21T00:28:26;4.90;;;4.13;;
20649;SDS011;10484;48.736;9.332;2023-11-21T00:30:51;7.67;;;3.97;;
20649;SDS011;10484;48.736;9.332;2023-11-21T00:33:17;5.40;;;3.37;;
20649;SDS011;10484;48.736;9.332;2023-11-21T00:35:42;7.50;;;3.80;;
20649;SDS011;10484;48.736;9.332;2023-11-21T00:38:08;7.20;;;3.63;;
20649;SDS011;10484;48.736;9.332;2023-11-21T00:40:34;4.57;;;2.80;;
20649;SDS011;10484;48.736;9.332;2023-11-21T00:42:59;6.00;;;4.23;;
20649;SDS011;10484;48.736;9.332;2023-11-21T00:45:25;6.23;;;4.90;;
20649;SDS011;10484;48.736;9.332;2023-11-21T00:47:51;6.97;;;5.13;;
20649;SDS011;10484;48.736;9.332;2023-11-21T00:50:17;8.80;;;5.10;;
20649;SDS011;10484;48.736;9.332;2023-11-21T00:52:42;6.40;;;4.50;;
20649;SDS011;10484;48.736;9.332;2023-11-21T00:55:08;6.00;;;4.00;;
20649;SDS011;10484;48.736;9.332;2023-11-21T00:57:34;8.40;;;4.97;;
20649;SDS011;10484;48.736;9.332;2023-11-21T01:00:00;6.27;;;4.67;;
20649;SDS011;10484;48.736;9.332;2023-11-21T01:02:26;5.83;;;4.20;;
20649;SDS011;10484;48.736;9.332;2023-11-21T01:04:51;5.13;;;3.53;;
20649;SDS011;10484;48.736;9.332;2023-11-21T01:07:17;5.13;;;3.70;;
20649;SDS011;10484;48.736;9.332;2023-11-21T01:09:45;3.27;;;2.43;;
20649;SDS011;10484;48.736;9.332;2023-11-21T01:12:11;6.00;;;3.40;;
20649;SDS011;10484;48.736;9.332;2023-11-21T01:14:37;5.13;;;2.60;;
20649;SDS011;10484;48.736;9.332;2023-11-21T01:17:02;8.30;;;2.83;;
20649;SDS011;10484;48.736;9.332;2023-11-21T01:19:29;4.73;;;3.10;;
20649;SDS011;10484;48.736;9.332;2023-11-21T01:21:55;8.57;;;2.90;;
20649;SDS011;10484;48.736;9.332;2023-11-21T01:24:22;3.73;;;2.40;;
20649;SDS011;10484;48.736;9.332;2023-11-21T01:26:48;6.67;;;2.63;;
20649;SDS011;10484;48.736;9.332;2023-11-21T01:29:14;3.27;;;2.20;;
20649;SDS011;10484;48.736;9.332;2023-11-21T01:31:40;7.20;;;2.40;;
20649;SDS011;10484;48.736;9.332;2023-11-21T01:34:06;3.03;;;1.87;;
20649;SDS011;10484;48.736;9.332;2023-11-21T01:36:32;6.33;;;2.03;;
20649;SDS011;10484;48.736;9.332;2023-11-21T01:38:58;5.50;;;2.13;;
20649;SDS011;10484;48.736;9.332;2023-11-21T01:41:27;3.90;;;2.00;;
20649;SDS011;10484;48.736;9.332;2023-11-21T01:43:53;2.73;;;2.20;;
20649;SDS011;10484;48.736;9.332;2023-11-21T01:46:22;2.80;;;2.20;;
20649;SDS011;10484;48.736;9.332;2023-11-21T01:48:49;4.83;;;2.60;;
20649;SDS011;10484;48.736;9.332;2023-11-21T01:51:15;2.83;;;2.20;;
20649;SDS011;10484;48.736;9.332;2023-11-21T01:53:41;3.93;;;1.97;;
20649;SDS011;10484;48.736;9.332;2023-11-21T01:56:07;4.67;;;2.67;;
20649;SDS011;10484;48.736;9.332;2023-11-21T01:58:34;3.60;;;2.23;;
20649;SDS011;10484;48.736;9.332;2023-11-21T02:01:00;5.07;;;2.27;;
20649;SDS011;10484;48.736;9.332;2023-11-21T02:03:26;2.93;;;2.00;;
20649;SDS011;10484;48.736;9.332;2023-11-21T02:05:52;4.93;;;1.97;;
20649;SDS011;10484;48.736;9.332;2023-11-21T02:08:18;3.37;;;1.90;;
20649;SDS011;10484;48.736;9.332;2023-11-21T02:10:44;4.50;;;1.90;;
20649;SDS011;10484;48.736;9.332;2023-11-21T02:13:10;3.10;;;1.60;;
20649;SDS011;10484;48.736;9.332;2023-11-21T02:15:36;2.90;;;1.33;;
20649;SDS011;10484;48.736;9.332;2023-11-21T02:18:03;2.53;;;1.80;;
20649;SDS011;10484;48.736;9.332;2023-11-21T02:20:30;4.93;;;1.60;;
20649;SDS011;10484;48.736;9.332;2023-11-21T02:22:59;3.33;;;1.80;;
20649;SDS011;10484;48.736;9.332;2023-11-21T02:25:29;4.30;;;1.90;;
20649;SDS011;10484;48.736;9.332;2023-11-21T02:27:59;2.50;;;1.33;;
20649;SDS011;10484;48.736;9.332;2023-11-21T02:30:25;2.07;;;1.47;;
20649;SDS011;10484;48.736;9.332;2023-11-21T02:32:53;2.73;;;1.70;;
20649;SDS011;10484;48.736;9.332;2023-11-21T02:35:19;1.83;;;1.60;;
20649;SDS011;10484;48.736;9.332;2023-11-21T02:37:47;2.90;;;1.40;;
20649;SDS011;10484;48.736;9.332;2023-11-21T02:40:13;3.83;;;1.60;;
20649;SDS011;10484;48.736;9.332;2023-11-21T02:42:43;2.87;;;1.63;;
20649;SDS011;10484;48.736;9.332;2023-11-21T02:45:12;1.87;;;1.60;;
20649;SDS011;10484;48.736;9.332;2023-11-21T02:47:41;1.60;;;1.33;;
20649;SDS011;10484;48.736;9.332;2023-11-21T02:50:07;2.70;;;1.40;;
20649;SDS011;10484;48.736;9.332;2023-11-21T02:52:34;4.20;;;2.00;;
20649;SDS011;10484;48.736;9.332;2023-11-21T02:55:00;4.70;;;1.67;;
20649;SDS011;10484;48.736;9.332;2023-11-21T02:57:26;7.27;;;1.30;;
20649;SDS011;10484;48.736;9.332;2023-11-21T02:59:52;4.60;;;1.30;;
20649;SDS011;10484;48.736;9.332;2023-11-21T03:02:17;1.73;;;1.40;;
20649;SDS011;10484;48.736;9.332;2023-11-21T03:04:43;1.80;;;1.50;;
20649;SDS011;10484;48.736;9.332;2023-11-21T03:07:09;2.33;;;1.67;;
20649;SDS011;10484;48.736;9.332;2023-11-21T03:09:34;1.50;;;1.30;;
20649;SDS011;10484;48.736;9.332;2023-11-21T03:12:00;3.20;;;1.33;;
20649;SDS011;10484;48.736;9.332;2023-11-21T03:14:26;2.03;;;1.20;;
20649;SDS011;10484;48.736;9.332;2023-11-21T03:16:52;3.03;;;1.40;;
20649;SDS011;10484;48.736;9.332;2023-11-21T03:19:17;3.57;;;1.00;;
20649;SDS011;10484;48.736;9.332;2023-11-21T03:21:43;1.37;;;1.20;;
20649;SDS011;10484;48.736;9.332;2023-11-21T03:24:08;4.30;;;1.47;;
20649;SDS011;10484;48.736;9.332;2023-11-21T03:26:34;2.10;;;1.10;;
20649;SDS011;10484;48.736;9.332;2023-11-21T03:28:59;4.83;;;1.27;;
20649;SDS011;10484;48.736;9.332;2023-11-21T03:31:25;4.10;;;1.40;;
20649;SDS011;10484;48.736;9.332;2023-11-21T03:33:51;1.63;;;1.00;;
20649;SDS011;10484;48.736;9.332;2023-11-21T03:36:18;1.93;;;1.10;;
20649;SDS011;10484;48.736;9.332;2023-11-21T03:38:44;2.03;;;0.97;;
20649;SDS011;10484;48.736;9.332;2023-11-21T03:41:10;3.80;;;1.17;;
20649;SDS011;10484;48.736;9.332;2023-11-21T03:43:36;2.27;;;0.70;;
20649;SDS011;10484;48.736;9.332;2023-11-21T03:46:02;1.47;;;1.10;;
20649;SDS011;10484;48.736;9.332;2023-11-21T03:48:28;1.63;;;0.80;;
20649;SDS011;10484;48.736;9.332;2023-11-21T03:50:53;2.40;;;0.90;;
20649;SDS011;10484;48.736;9.332;2023-11-21T03:53:19;4.03;;;0.80;;
20649;SDS011;10484;48.736;9.332;2023-11-21T03:55:45;2.53;;;1.30;;
20649;SDS011;10484;48.736;9.332;2023-11-21T03:58:10;2.07;;;0.73;;
20649;SDS011;10484;48.736;9.332;2023-11-21T04:00:36;1.70;;;0.83;;
20649;SDS011;10484;48.736;9.332;2023-11-21T04:03:01;5.00;;;1.37;;
20649;SDS011;10484;48.736;9.332;2023-11-21T04:05:28;2.00;;;0.90;;
20649;SDS011;10484;48.736;9.332;2023-11-21T04:07:53;4.63;;;0.87;;
20649;SDS011;10484;48.736;9.332;2023-11-21T04:10:19;5.90;;;1.00;;
20649;SDS011;10484;48.736;9.332;2023-11-21T04:12:45;2.37;;;0.63;;
20649;SDS011;10484;48.736;9.332;2023-11-21T04:15:10;1.70;;;1.00;;
20649;SDS011;10484;48.736;9.332;2023-11-21T04:17:38;1.87;;;0.77;;
20649;SDS011;10484;48.736;9.332;2023-11-21T04:20:04;4.03;;;1.00;;
20649;SDS011;10484;48.736;9.332;2023-11-21T04:22:41;1.50;;;0.90;;
20649;SDS011;10484;48.736;9.332;2023-11-21T04:25:12;1.30;;;0.83;;
20649;SDS011;10484;48.736;9.332;2023-11-21T04:27:39;2.10;;;0.97;;
20649;SDS011;10484;48.736;9.332;2023-11-21T04:30:08;2.30;;;0.80;;
20649;SDS011;10484;48.736;9.332;2023-11-21T04:32:35;0.87;;;0.60;;
20649;SDS011;10484;48.736;9.332;2023-11-21T04:35:00;1.10;;;0.73;;
20649;SDS011;10484;48.736;9.332;2023-11-21T04:37:26;1.60;;;0.77;;
20649;SDS011;10484;48.736;9.332;2023-11-21T04:39:52;3.80;;;1.40;;
20649;SDS011;10484;48.736;9.332;2023-11-21T04:42:17;4.87;;;1.07;;
20649;SDS011;10484;48.736;9.332;2023-11-21T04:44:43;2.77;;;0.97;;
20649;SDS011;10484;48.736;9.332;2023-11-21T04:47:09;3.90;;;0.80;;
20649;SDS011;10484;48.736;9.332;2023-11-21T04:49:35;2.80;;;0.80;;
20649;SDS011;10484;48.736;9.332;2023-11-21T04:52:01;1.27;;;0.57;;
20649;SDS011;10484;48.736;9.332;2023-11-21T04:54:28;3.73;;;0.73;;
20649;SDS011;10484;48.736;9.332;2023-11-21T04:56:55;0.90;;;0.90;;
20649;SDS011;10484;48.736;9.332;2023-11-21T04:59:21;2.10;;;0.63;;
20649;SDS011;10484;48.736;9.332;2023-11-21T05:01:50;1.20;;;0.70;;
20649;SDS011;10484;48.736;9.332;2023-11-21T05:04:15;2.13;;;0.73;;
20649;SDS011;10484;48.736;9.332;2023-11-21T05:06:41;3.40;;;0.90;;
20649;SDS011;10484;48.736;9.332;2023-11-21T05:09:06;1.80;;;0.70;;
20649;SDS011;10484;48.736;9.332;2023-11-21T05:11:36;2.30;;;0.60;;
20649;SDS011;10484;48.736;9.332;2023-11-21T05:14:02;0.83;;;0.57;;
20649;SDS011;10484;48.736;9.332;2023-11-21T05:16:30;1.17;;;0.80;;
20649;SDS011;10484;48.736;9.332;2023-11-21T05:18:56;1.63;;;0.60;;
20649;SDS011;10484;48.736;9.332;2023-11-21T05:21:25;2.27;;;0.70;;
20649;SDS011;10484;48.736;9.332;2023-11-21T05:23:51;1.27;;;0.60;;
20649;SDS011;10484;48.736;9.332;2023-11-21T05:26:17;1.73;;;0.57;;
20649;SDS011;10484;48.736;9.332;2023-11-21T05:28:43;1.37;;;0.70;;
20649;SDS011;10484;48.736;9.332;2023-11-21T05:31:08;1.37;;;0.90;;
20649;SDS011;10484;48.736;9.332;2023-11-21T05:33:35;0.60;;;0.60;;
20649;SDS011;10484;48.736;9.332;2023-11-21T05:36:01;2.63;;;0.70;;
20649;SDS011;10484;48.736;9.332;2023-11-21T05:38:27;1.03;;;0.80;;
20649;SDS011;10484;48.736;9.332;2023-11-21T05:40:52;0.80;;;0.70;;
20649;SDS011;10484;48.736;9.332;2023-11-21T05:43:18;4.00;;;0.80;;
20649;SDS011;10484;48.736;9.332;2023-11-21T05:45:43;1.60;;;0.87;;
20649;SDS011;10484;48.736;9.332;2023-11-21T05:48:09;0.90;;;0.60;;
20649;SDS011;10484;48.736;9.332;2023-11-21T05:50:35;1.70;;;0.63;;
20649;SDS011;10484;48.736;9.332;2023-11-21T05:53:02;0.90;;;0.67;;
20649;SDS011;10484;48.736;9.332;2023-11-21T05:55:28;1.77;;;0.97;;
20649;SDS011;10484;48.736;9.332;2023-11-21T05:57:54;1.07;;;0.73;;
20649;SDS011;10484;48.736;9.332;2023-11-21T06:00:19;1.70;;;0.80;;
20649;SDS011;10484;48.736;9.332;2023-11-21T06:02:47;2.63;;;0.83;;
20649;SDS011;10484;48.736;9.332;2023-11-21T06:05:16;1.37;;;0.80;;
20649;SDS011;10484;48.736;9.332;2023-11-21T06:07:42;0.80;;;0.53;;
20649;SDS011;10484;48.736;9.332;2023-11-21T06:10:08;3.47;;;1.13;;
20649;SDS011;10484;48.736;9.332;2023-11-21T06:12:36;1.27;;;0.50;;
20649;SDS011;10484;48.736;9.332;2023-11-21T06:15:03;2.70;;;0.90;;
20649;SDS011;10484;48.736;9.332;2023-11-21T06:17:30;1.53;;;0.67;;
20649;SDS011;10484;48.736;9.332;2023-11-21T06:19:56;1.23;;;0.60;;
20649;SDS011;10484;48.736;9.332;2023-11-21T06:22:22;1.00;;;0.90;;
20649;SDS011;10484;48.736;9.332;2023-11-21T06:24:47;2.30;;;0.77;;
20649;SDS011;10484;48.736;9.332;2023-11-21T06:27:13;1.30;;;0.80;;
20649;SDS011;10484;48.736;9.332;2023-11-21T06:29:38;1.60;;;0.60;;
20649;SDS011;10484;48.736;9.332;2023-11-21T06:32:04;0.60;;;0.50;;
20649;SDS011;10484;48.736;9.332;2023-11-21T06:34:30;2.50;;;1.00;;
20649;SDS011;10484;48.736;9.332;2023-11-21T06:36:56;1.47;;;0.67;;
20649;SDS011;10484;48.736;9.332;2023-11-21T06:39:22;1.03;;;0.77;;
20649;SDS011;10484;48.736;9.332;2023-11-21T06:41:51;2.73;;;0.70;;
20649;SDS011;10484;48.736;9.332;2023-11-21T06:44:16;4.77;;;1.03;;
20649;SDS011;10484;48.736;9.332;2023-11-21T06:46:42;1.33;;;0.63;;
20649;SDS011;10484;48.736;9.332;2023-11-21T06:49:07;1.80;;;0.80;;
20649;SDS011;10484;48.736;9.332;2023-11-21T06:51:33;2.33;;;1.00;;
20649;SDS011;10484;48.736;9.332;2023-11-21T06:53:59;0.70;;;0.57;;
20649;SDS011;10484;48.736;9.332;2023-11-21T06:56:25;2.77;;;1.00;;
20649;SDS011;10484;48.736;9.332;2023-11-21T06:58:50;2.13;;;0.70;;
20649;SDS011;10484;48.736;9.332;2023-11-21T07:01:19;1.53;;;0.70;;
20649;SDS011;10484;48.736;9.332;2023-11-21T07:03:44;2.30;;;0.90;;
20649;SDS011;10484;48.736;9.332;2023-11-21T07:06:10;3.83;;;0.80;;
20649;SDS011;10484;48.736;9.332;2023-11-21T07:08:36;0.90;;;0.60;;
20649;SDS011;10484;48.736;9.332;2023-11-21T07:11:02;1.20;;;1.10;;
20649;SDS011;10484;48.736;9.332;2023-11-21T07:13:28;1.53;;;0.73;;
20649;SDS011;10484;48.736;9.332;2023-11-21T07:15:54;1.63;;;0.70;;
20649;SDS011;10484;48.736;9.332;2023-11-21T07:18:20;1.73;;;0.90;;
20649;SDS011;10484;48.736;9.332;2023-11-21T07:20:46;2.07;;;1.00;;
20649;SDS011;10484;48.736;9.332;2023-11-21T07:23:11;1.93;;;0.93;;
20649;SDS011;10484;48.736;9.332;2023-11-21T07:25:37;2.03;;;1.00;;
20649;SDS011;10484;48.736;9.332;2023-11-21T07:28:02;0.80;;;0.70;;
20649;SDS011;10484;48.736;9.332;2023-11-21T07:30:30;0.87;;;0.70;;
20649;SDS011;10484;48.736;9.332;2023-11-21T07:32:55;1.77;;;0.70;;
20649;SDS011;10484;48.736;9.332;2023-11-21T07:35:21;2.00;;;1.03;;
20649;SDS011;10484;48.736;9.332;2023-11-21T07:37:47;0.80;;;0.63;;
20649;SDS011;10484;48.736;9.332;2023-11-21T07:40:13;1.20;;;1.00;;
20649;SDS011;10484;48.736;9.332;2023-11-21T07:42:40;1.90;;;0.93;;
20649;SDS011;10484;48.736;9.332;2023-11-21T07:45:07;1.13;;;1.03;;
20649;SDS011;10484;48.736;9.332;2023-11-21T07:47:33;1.53;;;1.07;;
20649;SDS011;10484;48.736;9.332;2023-11-21T07:49:59;2.00;;;1.30;;
20649;SDS011;10484;48.736;9.332;2023-11-21T07:52:27;1.10;;;1.00;;
20649;SDS011;10484;48.736;9.332;2023-11-21T07:54:53;0.93;;;0.90;;
20649;SDS011;10484;48.736;9.332;2023-11-21T07:57:19;2.07;;;0.80;;
20649;SDS011;10484;48.736;9.332;2023-11-21T07:59:44;1.40;;;1.13;;
20649;SDS011;10484;48.736;9.332;2023-11-21T08:02:10;0.70;;;0.70;;
20649;SDS011;10484;48.736;9.332;2023-11-21T08:04:35;1.80;;;0.87;;
20649;SDS011;10484;48.736;9.332;2023-11-21T08:07:01;1.37;;;1.27;;
20649;SDS011;10484;48.736;9.332;2023-11-21T08:09:27;1.50;;;1.03;;
20649;SDS011;10484;48.736;9.332;2023-11-21T08:11:52;1.73;;;1.10;;
20649;SDS011;10484;48.736;9.332;2023-11-21T08:14:18;2.10;;;1.50;;
20649;SDS011;10484;48.736;9.332;2023-11-21T08:16:45;1.00;;;0.80;;
20649;SDS011;10484;48.736;9.332;2023-11-21T08:19:10;1.33;;;0.90;;
20649;SDS011;10484;48.736;9.332;2023-11-21T08:21:36;1.17;;;0.90;;
20649;SDS011;10484;48.736;9.332;2023-11-21T08:24:04;1.30;;;1.10;;
20649;SDS011;10484;48.736;9.332;2023-11-21T08:26:30;1.30;;;1.03;;
20649;SDS011;10484;48.736;9.332;2023-11-21T08:28:56;2.07;;;1.00;;
20649;SDS011;10484;48.736;9.332;2023-11-21T08:31:27;1.50;;;1.40;;
20649;SDS011;10484;48.736;9.332;2023-11-21T08:33:54;1.13;;;1.03;;
20649;SDS011;10484;48.736;9.332;2023-11-21T08:36:21;1.50;;;1.40;;
20649;SDS011;10484;48.736;9.332;2023-11-21T08:38:49;1.53;;;1.43;;
20649;SDS011;10484;48.736;9.332;2023-11-21T08:41:17;1.53;;;1.43;;
20649;SDS011;10484;48.736;9.332;2023-11-21T08:43:42;1.50;;;1.40;;
20649;SDS011;10484;48.736;9.332;2023-11-21T08:46:09;1.87;;;1.40;;
20649;SDS011;10484;48.736;9.332;2023-11-21T08:48:35;1.97;;;1.60;;
20649;SDS011;10484;48.736;9.332;2023-11-21T08:51:01;3.10;;;1.67;;
20649;SDS011;10484;48.736;9.332;2023-11-21T08:53:27;3.03;;;1.90;;
20649;SDS011;10484;48.736;9.332;2023-11-21T08:55:53;2.70;;;1.43;;
20649;SDS011;10484;48.736;9.332;2023-11-21T08:58:19;2.67;;;1.60;;
20649;SDS011;10484;48.736;9.332;2023-11-21T09:00:44;2.10;;;1.43;;
20649;SDS011;10484;48.736;9.332;2023-11-21T09:03:11;2.37;;;2.10;;
20649;SDS011;10484;48.736;9.332;2023-11-21T09:05:38;2.00;;;1.83;;
20649;SDS011;10484;48.736;9.332;2023-11-21T09:08:04;3.43;;;1.77;;
20649;SDS011;10484;48.736;9.332;2023-11-21T09:10:30;1.47;;;1.30;;
20649;SDS011;10484;48.736;9.332;2023-11-21T09:12:57;1.50;;;1.40;;
20649;SDS011;10484;48.736;9.332;2023-11-21T09:15:24;1.63;;;1.50;;
20649;SDS011;10484;48.736;9.332;2023-11-21T09:17:50;2.20;;;1.50;;
20649;SDS011;10484;48.736;9.332;2023-11-21T09:20:15;1.90;;;1.70;;
20649;SDS011;10484;48.736;9.332;2023-11-21T09:22:41;1.90;;;1.70;;
20649;SDS011;10484;48.736;9.332;2023-11-21T09:25:07;1.83;;;1.57;;
20649;SDS011;10484;48.736;9.332;2023-11-21T09:27:33;1.50;;;1.40;;
20649;SDS011;10484;48.736;9.332;2023-11-21T09:30:00;1.43;;;1.33;;
20649;SDS011;10484;48.736;9.332;2023-11-21T09:32:26;3.00;;;1.50;;
20649;SDS011;10484;48.736;9.332;2023-11-21T09:34:52;4.80;;;2.33;;
20649;SDS011;10484;48.736;9.332;2023-11-21T09:37:20;4.30;;;1.50;;
20649;SDS011;10484;48.736;9.332;2023-11-21T09:39:45;1.67;;;1.57;;
20649;SDS011;10484;48.736;9.332;2023-11-21T09:42:17;1.93;;;1.70;;
20649;SDS011;10484;48.736;9.332;2023-11-21T09:44:54;3.17;;;1.73;;
20649;SDS011;10484;48.736;9.332;2023-11-21T09:47:29;2.57;;;1.67;;
20649;SDS011;10484;48.736;9.332;2023-11-21T09:49:55;1.60;;;1.50;;
20649;SDS011;10484;48.736;9.332;2023-11-21T09:52:26;2.30;;;1.70;;
20649;SDS011;10484;48.736;9.332;2023-11-21T09:54:53;2.80;;;1.20;;
20649;SDS011;10484;48.736;9.332;2023-11-21T09:57:20;1.87;;;1.77;;
20649;SDS011;10484;48.736;9.332;2023-11-21T09:59:52;1.60;;;1.20;;
20649;SDS011;10484;48.736;9.332;2023-11-21T10:02:27;1.57;;;1.40;;
20649;SDS011;10484;48.736;9.332;2023-11-21T10:04:58;2.60;;;1.77;;
20649;SDS011;10484;48.736;9.332;2023-11-21T10:07:25;2.17;;;1.50;;
20649;SDS011;10484;48.736;9.332;2023-11-21T10:09:51;2.57;;;1.37;;
20649;SDS011;10484;48.736;9.332;2023-11-21T10:12:19;2.10;;;1.70;;
20649;SDS011;10484;48.736;9.332;2023-11-21T10:14:48;1.60;;;1.50;;
20649;SDS011;10484;48.736;9.332;2023-11-21T10:17:14;1.90;;;1.80;;
20649;SDS011;10484;48.736;9.332;2023-11-21T10:19:43;3.20;;;1.47;;
20649;SDS011;10484;48.736;9.332;2023-11-21T10:22:12;3.20;;;2.10;;
20649;SDS011;10484;48.736;9.332;2023-11-21T10:24:39;2.67;;;1.83;;
20649;SDS011;10484;48.736;9.332;2023-11-21T10:27:05;1.60;;;1.50;;
20649;SDS011;10484;48.736;9.332;2023-11-21T10:29:31;1.97;;;1.77;;
20649;SDS011;10484;48.736;9.332;2023-11-21T10:32:00;1.50;;;1.40;;
20649;SDS011;10484;48.736;9.332;2023-11-21T10:34:27;1.43;;;1.30;;
20649;SDS011;10484;48.736;9.332;2023-11-21T10:36:52;2.17;;;2.00;;
20649;SDS011;10484;48.736;9.332;2023-11-21T10:39:19;2.70;;;1.20;;
20649;SDS011;10484;48.736;9.332;2023-11-21T10:41:48;1.10;;;1.00;;
20649;SDS011;10484;48.736;9.332;2023-11-21T10:44:14;1.43;;;1.30;;
20649;SDS011;10484;48.736;9.332;2023-11-21T10:46:49;1.80;;;1.30;;
20649;SDS011;10484;48.736;9.332;2023-11-21T10:49:19;1.53;;;1.00;;
20649;SDS011;10484;48.736;9.332;2023-11-21T10:51:45;1.23;;;1.07;;
20649;SDS011;10484;48.736;9.332;2023-11-21T10:54:16;1.40;;;1.30;;
20649;SDS011;10484;48.736;9.332;2023-11-21T10:56:43;1.33;;;1.23;;
20649;SDS011;10484;48.736;9.332;2023-11-21T10:59:10;2.10;;;1.73;;
20649;SDS011;10484;48.736;9.332;2023-11-21T11:01:39;1.90;;;1.30;;
20649;SDS011;10484;48.736;9.332;2023-11-21T11:04:09;1.27;;;1.17;;
20649;SDS011;10484;48.736;9.332;2023-11-21T11:06:44;1.40;;;1.17;;
20649;SDS011;10484;48.736;9.332;2023-11-21T11:09:30;2.20;;;0.93;;
20649;SDS011;10484;48.736;9.332;2023-11-21T11:11:58;1.50;;;1.00;;
20649;SDS011;10484;48.736;9.332;2023-11-21T11:14:24;1.47;;;0.87;;
20649;SDS011;10484;48.736;9.332;2023-11-21T11:16:53;0.90;;;0.63;;
20649;SDS011;10484;48.736;9.332;2023-11-21T11:19:20;0.87;;;0.87;;
20649;SDS011;10484;48.736;9.332;2023-11-21T11:21:53;1.10;;;0.73;;
20649;SDS011;10484;48.736;9.332;2023-11-21T11:24:58;1.17;;;0.90;;
20649;SDS011;10484;48.736;9.332;2023-11-21T11:30:16;1.10;;;1.00;;
20649;SDS011;10484;48.736;9.332;2023-11-21T11:35:23;1.23;;;1.00;;
20649;SDS011;10484;48.736;9.332;2023-11-21T11:38:12;1.30;;;1.20;;
20649;SDS011;10484;48.736;9.332;2023-11-21T11:40:39;1.80;;;1.53;;
20649;SDS011;10484;48.736;9.332;2023-11-21T11:43:07;2.20;;;1.60;;
20649;SDS011;10484;48.736;9.332;2023-11-21T11:45:33;1.90;;;1.70;;
20649;SDS011;10484;48.736;9.332;2023-11-21T11:48:06;1.63;;;1.53;;
20649;SDS011;10484;48.736;9.332;2023-11-21T11:50:32;1.87;;;1.77;;
20649;SDS011;10484;48.736;9.332;2023-11-21T11:53:12;3.23;;;1.90;;
20649;SDS011;10484;48.736;9.332;2023-11-21T11:55:38;2.67;;;1.90;;
20649;SDS011;10484;48.736;9.332;2023-11-21T11:58:05;1.73;;;1.47;;
20649;SDS011;10484;48.736;9.332;2023-11-21T12:02:58;1.93;;;1.20;;
20649;SDS011;10484;48.736;9.332;2023-11-21T12:05:28;1.30;;;1.20;;
20649;SDS011;10484;48.736;9.332;2023-11-21T12:07:56;1.63;;;1.30;;
20649;SDS011;10484;48.736;9.332;2023-11-21T12:10:29;0.80;;;0.80;;
20649;SDS011;10484;48.736;9.332;2023-11-21T12:12:57;1.67;;;1.33;;
20649;SDS011;10484;48.736;9.332;2023-11-21T12:15:23;2.13;;;1.03;;
20649;SDS011;10484;48.736;9.332;2023-11-21T12:17:56;1.63;;;1.00;;
20649;SDS011;10484;48.736;9.332;2023-11-21T12:20:23;0.90;;;0.90;;
20649;SDS011;10484;48.736;9.332;2023-11-21T12:22:50;0.90;;;0.70;;
20649;SDS011;10484;48.736;9.332;2023-11-21T12:25:18;0.80;;;0.80;;
20649;SDS011;10484;48.736;9.332;2023-11-21T12:27:49;0.70;;;0.60;;
20649;SDS011;10484;48.736;9.332;2023-11-21T12:30:16;0.80;;;0.67;;
20649;SDS011;10484;48.736;9.332;2023-11-21T12:32:43;1.13;;;0.80;;
20649;SDS011;10484;48.736;9.332;2023-11-21T12:35:11;2.20;;;0.90;;
20649;SDS011;10484;48.736;9.332;2023-11-21T12:37:40;1.07;;;0.97;;
20649;SDS011;10484;48.736;9.332;2023-11-21T12:40:10;1.10;;;0.90;;
20649;SDS011;10484;48.736;9.332;2023-11-21T12:42:39;1.03;;;0.93;;
20649;SDS011;10484;48.736;9.332;2023-11-21T12:45:07;1.30;;;1.20;;
20649;SDS011;10484;48.736;9.332;2023-11-21T12:47:40;1.13;;;1.03;;
20649;SDS011;10484;48.736;9.332;2023-11-21T12:50:07;1.60;;;1.30;;
20649;SDS011;10484;48.736;9.332;2023-11-21T12:52:39;1.20;;;1.10;;
20649;SDS011;10484;48.736;9.332;2023-11-21T12:55:06;1.60;;;1.50;;
20649;SDS011;10484;48.736;9.332;2023-11-21T12:57:34;2.03;;;1.60;;
20649;SDS011;10484;48.736;9.332;2023-11-21T13:00:03;1.27;;;1.17;;
20649;SDS011;10484;48.736;9.332;2023-11-21T13:02:37;1.70;;;1.60;;
20649;SDS011;10484;48.736;9.332;2023-11-21T13:05:03;1.40;;;1.30;;
20649;SDS011;10484;48.736;9.332;2023-11-21T13:07:40;2.00;;;1.57;;
20649;SDS011;10484;48.736;9.332;2023-11-21T13:10:11;1.70;;;1.60;;
20649;SDS011;10484;48.736;9.332;2023-11-21T13:12:42;2.13;;;1.93;;
20649;SDS011;10484;48.736;9.332;2023-11-21T13:15:10;1.70;;;1.50;;
20649;SDS011;10484;48.736;9.332;2023-11-21T13:17:35;2.47;;;1.70;;
20649;SDS011;10484;48.736;9.332;2023-11-21T13:20:01;2.00;;;1.80;;
20649;SDS011;10484;48.736;9.332;2023-11-21T13:22:31;1.67;;;1.57;;
20649;SDS011;10484;48.736;9.332;2023-11-21T13:24:58;2.60;;;1.87;;
20649;SDS011;10484;48.736;9.332;2023-11-21T13:27:23;2.27;;;2.07;;
20649;SDS011;10484;48.736;9.332;2023-11-21T13:29:50;1.90;;;1.80;;
20649;SDS011;10484;48.736;9.332;2023-11-21T13:32:16;3.40;;;1.60;;
20649;SDS011;10484;48.736;9.332;2023-11-21T13:34:45;1.83;;;1.53;;
20649;SDS011;10484;48.736;9.332;2023-11-21T13:37:12;1.33;;;1.23;;
20649;SDS011;10484;48.736;9.332;2023-11-21T13:39:38;1.30;;;1.20;;
20649;SDS011;10484;48.736;9.332;2023-11-21T13:42:09;1.23;;;1.13;;
20649;SDS011;10484;48.736;9.332;2023-11-21T13:44:36;1.30;;;1.20;;
20649;SDS011;10484;48.736;9.332;2023-11-21T13:47:03;1.30;;;1.20;;
20649;SDS011;10484;48.736;9.332;2023-11-21T13:49:30;1.47;;;1.37;;
20649;SDS011;10484;48.736;9.332;2023-11-21T13:52:01;1.90;;;1.43;;
20649;SDS011;10484;48.736;9.332;2023-11-21T13:54:28;1.63;;;1.53;;
20649;SDS011;10484;48.736;9.332;2023-11-21T13:56:54;1.50;;;1.40;;
20649;SDS011;10484;48.736;9.332;2023-11-21T13:59:20;1.60;;;1.50;;
20649;SDS011;10484;48.736;9.332;2023-11-21T14:01:50;1.70;;;1.60;;
20649;SDS011;10484;48.736;9.332;2023-11-21T14:04:24;1.80;;;1.57;;
20649;SDS011;10484;48.736;9.332;2023-11-21T14:07:26;2.37;;;1.63;;
20649;SDS011;10484;48.736;9.332;2023-11-21T14:10:00;1.73;;;1.63;;
20649;SDS011;10484;48.736;9.332;2023-11-21T14:12:26;1.77;;;1.67;;
20649;SDS011;10484;48.736;9.332;2023-11-21T14:14:53;1.87;;;1.77;;
20649;SDS011;10484;48.736;9.332;2023-11-21T14:17:20;1.80;;;1.70;;
20649;SDS011;10484;48.736;9.332;2023-11-21T14:19:47;2.97;;;2.43;;
20649;SDS011;10484;48.736;9.332;2023-11-21T14:22:14;2.90;;;2.70;;
20649;SDS011;10484;48.736;9.332;2023-11-21T14:24:40;2.47;;;2.30;;
20649;SDS011;10484;48.736;9.332;2023-11-21T14:27:10;2.63;;;2.43;;
20649;SDS011;10484;48.736;9.332;2023-11-21T14:29:36;2.10;;;2.00;;
20649;SDS011;10484;48.736;9.332;2023-11-21T14:32:04;2.70;;;2.50;;
20649;SDS011;10484;48.736;9.332;2023-11-21T14:34:30;3.10;;;2.80;;
20649;SDS011;10484;48.736;9.332;2023-11-21T14:36:56;4.30;;;2.80;;
20649;SDS011;10484;48.736;9.332;2023-11-21T14:39:22;2.43;;;2.33;;
20649;SDS011;10484;48.736;9.332;2023-11-21T14:42:00;1.60;;;1.50;;
20649;SDS011;10484;48.736;9.332;2023-11-21T14:44:27;1.37;;;1.27;;
20649;SDS011;10484;48.736;9.332;2023-11-21T14:46:57;2.50;;;1.27;;
20649;SDS011;10484;48.736;9.332;2023-11-21T14:49:24;2.80;;;1.30;;
20649;SDS011;10484;48.736;9.332;2023-11-21T14:51:53;1.77;;;1.67;;
20649;SDS011;10484;48.736;9.332;2023-11-21T14:54:26;1.30;;;1.20;;
20649;SDS011;10484;48.736;9.332;2023-11-21T14:57:11;1.00;;;1.00;;